DATA ZE ZPRÁV METAR

Zprávy METAR jsou pravidelné letecké meteorologické zprávy o podmínkách na daném letišti, zejména o stavu oblačnosti, viditelnosti a průběhu počasí v poslední hodině. Na letištích s pravidelným provozem jsou vydávány každých 30 minut, jinak zpravidla jednou za hodinu. Ne každé letiště (zejména komerční) poskytuje zprávy po celých 24 hodin denně. Více o zprávách METAR najdete na této stránce.

Zprávy METAR z letišť v blízkém okolí

LKPR - Praha Ruzyně, Česká republika
Směr a vzdálenost od této stanice: ZJZ 98km
Aktualizováno: 23.02.2018 11:30
Polojasno
Polojasno
 Vítr ze směru VSV
Vítr: VSV 11 km/h
Teplota: -2°C
Chlad větru: -6°C
Rosný bod: -9°C
Vlhkost: 59%
Tlak vzduchu: 1020 hPa
Oblačnost: Polojasno
Dohlednost: 10 km
Detaily oblačnosti: Polojasno 792 m
2018/02/23 10:30 LKPR 231030Z 06006KT 020V090 9999 SCT026 M02/M09 Q1020 NOSIG
LKTB - Brno Tuřany, Česká republika
Směr a vzdálenost od této stanice: JJV 174km
Aktualizováno: 23.02.2018 11:30
Skoro zataženo
Skoro zataženo
 Vítr ze směru VSV
Vítr: VSV 22 km/h
Teplota: -2°C
Chlad větru: -8°C
Rosný bod: -6°C
Vlhkost: 74%
Tlak vzduchu: 1019 hPa
Oblačnost: Skoro zataženo
Dohlednost: 10 km
Detaily oblačnosti: Skoro zataženo 701 m
2018/02/23 10:30 LKTB 231030Z 06012KT 030V090 9999 BKN023 M02/M06 Q1019 NOSIG
 
LKKV - Karlovy Vary, Česká republika
Směr a vzdálenost od této stanice: Z 187km
Aktualizováno: 23.02.2018 11:30
Skoro jasno
Skoro jasno
 Vítr ze směru V
Vítr: V 19 km/h
Teplota: -5°C
Chlad větru: -12°C
Rosný bod: -10°C
Vlhkost: 68%
Tlak vzduchu: 1018 hPa
Oblačnost: Skoro jasno
Dohlednost: 10 km
Detaily oblačnosti: Skoro jasno 732 m
2018/02/23 10:30 LKKV 231030Z 10010KT 9999 FEW024 M05/M10 Q1018
LKMT - Ostrava Mošnov, Česká republika
Směr a vzdálenost od této stanice: VJV 208km
Aktualizováno: 23.02.2018 11:30
Light snow grains, Mlhavo, Low drifting, Sníh, Zataženo
Light snow grains, Mlhavo, Low drifting, Sníh, Zataženo
 Vítr ze směru S
Vítr: S 19 km/h
Teplota: -4°C
Chlad větru: -10°C
Rosný bod: -7°C
Vlhkost: 80%
Tlak vzduchu: 1021 hPa
Stav počasí: Light snow grains, Mlhavo, Low drifting, Sníh
Oblačnost: Zataženo
Dohlednost: 4 km
Detaily oblačnosti: Zataženo 366 m
2018/02/23 10:30 LKMT 231030Z 01010KT 3500 -SG BR DRSN OVC012 M04/M07 Q1021 R04/41//95 NOSIG
 
LKPD - Pardubice, Česká republika
Směr a vzdálenost od této stanice: JJV 56km
Aktualizováno: 23.02.2018 11:00
Polojasno
Polojasno
 Vítr ze směru SV
Vítr: SV 9 km/h
Teplota: -2°C
Chlad větru: -6°C
Rosný bod: -9°C
Vlhkost: 59%
Tlak vzduchu: 1021 hPa
Oblačnost: Polojasno
Dohlednost: 10 km
Detaily oblačnosti: Skoro jasno 884 m
Polojasno 3353 m
2018/02/23 10:00 LKPD 231000Z 04005KT 360V090 9999 FEW029 SCT110 M02/M09 Q1021 NOSIG
LKKB - Praha Kbely, Česká republika
Směr a vzdálenost od této stanice: ZJZ 81km
Aktualizováno: 23.02.2018 11:00
Polojasno
Polojasno
 Vítr ze směru VSV
Vítr: VSV 17 km/h
Teplota: -3°C
Chlad větru: -8°C
Rosný bod: -9°C
Vlhkost: 64%
Tlak vzduchu: 1021 hPa
Oblačnost: Polojasno
Dohlednost: 10 km
Detaily oblačnosti: Skoro jasno 671 m
Polojasno 1006 m
2018/02/23 10:00 LKKB 231000Z 06009KT 010V090 9999 FEW022 SCT033 M03/M09 Q1021 NOSIG
 
LKCV - Čáslav, Česká republika
Směr a vzdálenost od této stanice: J 63km
Aktualizováno: 23.02.2018 11:00
Polojasno
Polojasno
 Vítr ze směru SV
Vítr: SV 13 km/h
Teplota: -3°C
Chlad větru: -7°C
Rosný bod: -9°C
Vlhkost: 64%
Tlak vzduchu: 1021 hPa
Oblačnost: Polojasno
Dohlednost: 10 km
Detaily oblačnosti: Skoro jasno 1097 m
Polojasno 3048 m
2018/02/23 10:00 LKCV 231000Z 05007KT 020V090 9999 FEW036 SCT100 M03/M09 Q1021 NOSIG
LKNA - Náměšť n. Osl., Česká republika
Směr a vzdálenost od této stanice: JJV 154km
Aktualizováno: 23.02.2018 11:00
Skoro zataženo
Skoro zataženo
 Vítr ze směru SV
Vítr: SV 20 km/h
Teplota: -4°C
Chlad větru: -11°C
Rosný bod: -9°C
Vlhkost: 69%
Tlak vzduchu: 1018 hPa
Oblačnost: Skoro zataženo
Dohlednost: 10 km
Detaily oblačnosti: Skoro zataženo 640 m
2018/02/23 10:00 LKNA 231000Z 04011KT 9999 BKN021 M04/M09 Q1018 NOSIG
 
LKLN - Plzeň Líně, Česká republika
Směr a vzdálenost od této stanice: ZJZ 184km
Aktualizováno: 23.02.2018 11:00
Skoro zataženo
Skoro zataženo
 Vítr ze směru SV
Vítr: SV 11 km/h
Teplota: -3°C
Chlad větru: -7°C
Rosný bod: -8°C
Vlhkost: 69%
Tlak vzduchu: 1020 hPa
Oblačnost: Skoro zataženo
Dohlednost: 10 km
Detaily oblačnosti: Skoro zataženo 640 m
2018/02/23 10:00 LKLN 231000Z AUTO 04006KT 310V080 9999 BKN021 M03/M08 Q1020
EDDC - Dresden Klotzsch, Německo
Směr a vzdálenost od této stanice: ZSZ 142km
Aktualizováno: 23.02.2018 11:20
Skoro jasno
Skoro jasno
 Vítr ze směru V
Vítr: V 20 km/h
Teplota: -4°C
Chlad větru: -11°C
Rosný bod: -10°C
Vlhkost: 63%
Tlak vzduchu: 1023 hPa
Oblačnost: Skoro jasno
Dohlednost: 10 km
Detaily oblačnosti: Skoro jasno 701 m
2018/02/23 10:20 EDDC 231020Z 09011KT 050V110 9999 FEW023 M04/M10 Q1023 NOSIG